sensor_id;sensor_type;location;lat;lon;timestamp;P1;durP1;ratioP1;P2;durP2;ratioP2
75289;SDS011;63883;48.996;20.804;2023-05-10T00:01:23;7.95;;;5.07;;
75289;SDS011;63883;48.996;20.804;2023-05-10T00:03:49;9.80;;;4.63;;
75289;SDS011;63883;48.996;20.804;2023-05-10T00:06:15;7.53;;;4.57;;
75289;SDS011;63883;48.996;20.804;2023-05-10T00:08:41;8.88;;;5.03;;
75289;SDS011;63883;48.996;20.804;2023-05-10T00:11:06;8.15;;;4.95;;
75289;SDS011;63883;48.996;20.804;2023-05-10T00:13:32;7.03;;;4.80;;
75289;SDS011;63883;48.996;20.804;2023-05-10T00:15:58;7.97;;;4.75;;
75289;SDS011;63883;48.996;20.804;2023-05-10T00:18:24;6.70;;;4.90;;
75289;SDS011;63883;48.996;20.804;2023-05-10T00:20:49;8.60;;;4.60;;
75289;SDS011;63883;48.996;20.804;2023-05-10T00:23:15;10.52;;;5.70;;
75289;SDS011;63883;48.996;20.804;2023-05-10T00:25:41;8.88;;;4.80;;
75289;SDS011;63883;48.996;20.804;2023-05-10T00:28:07;7.63;;;4.60;;
75289;SDS011;63883;48.996;20.804;2023-05-10T00:30:32;9.32;;;4.95;;
75289;SDS011;63883;48.996;20.804;2023-05-10T00:32:58;8.82;;;5.10;;
75289;SDS011;63883;48.996;20.804;2023-05-10T00:35:23;8.65;;;5.22;;
75289;SDS011;63883;48.996;20.804;2023-05-10T00:37:49;8.48;;;5.03;;
75289;SDS011;63883;48.996;20.804;2023-05-10T00:40:15;8.27;;;5.10;;
75289;SDS011;63883;48.996;20.804;2023-05-10T00:42:41;8.35;;;5.10;;
75289;SDS011;63883;48.996;20.804;2023-05-10T00:45:07;8.02;;;4.55;;
75289;SDS011;63883;48.996;20.804;2023-05-10T00:47:33;8.75;;;4.80;;
75289;SDS011;63883;48.996;20.804;2023-05-10T00:49:59;7.15;;;4.50;;
75289;SDS011;63883;48.996;20.804;2023-05-10T00:52:26;8.32;;;4.97;;
75289;SDS011;63883;48.996;20.804;2023-05-10T00:54:53;7.72;;;4.60;;
75289;SDS011;63883;48.996;20.804;2023-05-10T00:57:21;8.15;;;4.90;;
75289;SDS011;63883;48.996;20.804;2023-05-10T00:59:46;8.23;;;5.63;;
75289;SDS011;63883;48.996;20.804;2023-05-10T01:02:13;24.95;;;13.57;;
75289;SDS011;63883;48.996;20.804;2023-05-10T01:04:39;14.38;;;9.07;;
75289;SDS011;63883;48.996;20.804;2023-05-10T01:07:06;12.32;;;6.60;;
75289;SDS011;63883;48.996;20.804;2023-05-10T01:09:31;11.75;;;6.72;;
75289;SDS011;63883;48.996;20.804;2023-05-10T01:11:58;11.40;;;5.88;;
75289;SDS011;63883;48.996;20.804;2023-05-10T01:14:26;9.95;;;5.32;;
75289;SDS011;63883;48.996;20.804;2023-05-10T01:16:52;10.35;;;5.55;;
75289;SDS011;63883;48.996;20.804;2023-05-10T01:19:28;9.73;;;5.70;;
75289;SDS011;63883;48.996;20.804;2023-05-10T01:36:35;13.82;;;8.23;;
75289;SDS011;63883;48.996;20.804;2023-05-10T01:47:10;14.57;;;7.75;;
75289;SDS011;63883;48.996;20.804;2023-05-10T01:49:49;9.75;;;5.50;;
75289;SDS011;63883;48.996;20.804;2023-05-10T01:52:18;15.18;;;8.15;;
75289;SDS011;63883;48.996;20.804;2023-05-10T01:54:55;14.77;;;8.63;;
75289;SDS011;63883;48.996;20.804;2023-05-10T01:57:25;12.60;;;7.47;;
75289;SDS011;63883;48.996;20.804;2023-05-10T01:59:53;13.10;;;7.65;;
75289;SDS011;63883;48.996;20.804;2023-05-10T02:02:20;15.27;;;7.40;;
75289;SDS011;63883;48.996;20.804;2023-05-10T02:04:49;15.77;;;9.15;;
75289;SDS011;63883;48.996;20.804;2023-05-10T02:07:15;18.27;;;8.85;;
75289;SDS011;63883;48.996;20.804;2023-05-10T02:09:44;11.98;;;7.15;;
75289;SDS011;63883;48.996;20.804;2023-05-10T02:12:14;12.10;;;6.65;;
75289;SDS011;63883;48.996;20.804;2023-05-10T02:14:42;11.40;;;6.22;;
75289;SDS011;63883;48.996;20.804;2023-05-10T02:17:09;11.80;;;6.82;;
75289;SDS011;63883;48.996;20.804;2023-05-10T02:19:38;11.07;;;6.32;;
75289;SDS011;63883;48.996;20.804;2023-05-10T02:22:06;9.95;;;5.97;;
75289;SDS011;63883;48.996;20.804;2023-05-10T02:24:33;9.55;;;5.57;;
75289;SDS011;63883;48.996;20.804;2023-05-10T02:27:02;8.77;;;5.63;;
75289;SDS011;63883;48.996;20.804;2023-05-10T02:29:29;11.82;;;5.85;;
75289;SDS011;63883;48.996;20.804;2023-05-10T02:31:57;9.48;;;5.32;;
75289;SDS011;63883;48.996;20.804;2023-05-10T02:34:25;9.18;;;5.25;;
75289;SDS011;63883;48.996;20.804;2023-05-10T02:39:19;9.32;;;4.93;;
75289;SDS011;63883;48.996;20.804;2023-05-10T02:41:46;12.27;;;5.50;;
75289;SDS011;63883;48.996;20.804;2023-05-10T02:44:14;10.75;;;5.15;;
75289;SDS011;63883;48.996;20.804;2023-05-10T02:46:41;10.93;;;5.68;;
75289;SDS011;63883;48.996;20.804;2023-05-10T02:49:07;9.45;;;5.40;;
75289;SDS011;63883;48.996;20.804;2023-05-10T02:51:34;9.30;;;5.65;;
75289;SDS011;63883;48.996;20.804;2023-05-10T02:54:12;10.32;;;5.90;;
75289;SDS011;63883;48.996;20.804;2023-05-10T02:56:47;9.43;;;5.43;;
75289;SDS011;63883;48.996;20.804;2023-05-10T02:59:21;10.13;;;5.75;;
75289;SDS011;63883;48.996;20.804;2023-05-10T03:01:47;9.75;;;5.78;;
75289;SDS011;63883;48.996;20.804;2023-05-10T03:04:13;10.85;;;6.10;;
75289;SDS011;63883;48.996;20.804;2023-05-10T03:06:38;11.77;;;6.38;;
75289;SDS011;63883;48.996;20.804;2023-05-10T03:09:05;12.02;;;6.70;;
75289;SDS011;63883;48.996;20.804;2023-05-10T03:17:06;13.65;;;6.43;;
75289;SDS011;63883;48.996;20.804;2023-05-10T03:19:39;11.32;;;6.22;;
75289;SDS011;63883;48.996;20.804;2023-05-10T03:22:12;10.73;;;6.03;;
75289;SDS011;63883;48.996;20.804;2023-05-10T03:24:45;14.40;;;7.78;;
75289;SDS011;63883;48.996;20.804;2023-05-10T03:27:12;13.05;;;7.43;;
75289;SDS011;63883;48.996;20.804;2023-05-10T03:29:40;11.95;;;6.30;;
75289;SDS011;63883;48.996;20.804;2023-05-10T03:32:07;12.70;;;6.15;;
75289;SDS011;63883;48.996;20.804;2023-05-10T03:34:33;14.20;;;6.40;;
75289;SDS011;63883;48.996;20.804;2023-05-10T03:36:59;12.07;;;6.00;;
75289;SDS011;63883;48.996;20.804;2023-05-10T03:39:24;12.73;;;6.38;;
75289;SDS011;63883;48.996;20.804;2023-05-10T03:41:50;13.13;;;6.60;;
75289;SDS011;63883;48.996;20.804;2023-05-10T03:44:16;13.20;;;6.70;;
75289;SDS011;63883;48.996;20.804;2023-05-10T03:46:41;12.80;;;6.63;;
75289;SDS011;63883;48.996;20.804;2023-05-10T03:49:07;15.55;;;7.50;;
75289;SDS011;63883;48.996;20.804;2023-05-10T03:51:33;18.70;;;7.22;;
75289;SDS011;63883;48.996;20.804;2023-05-10T03:53:58;16.27;;;7.38;;
75289;SDS011;63883;48.996;20.804;2023-05-10T03:56:24;13.07;;;6.70;;
75289;SDS011;63883;48.996;20.804;2023-05-10T03:58:50;15.13;;;7.53;;
75289;SDS011;63883;48.996;20.804;2023-05-10T04:01:15;14.43;;;7.57;;
75289;SDS011;63883;48.996;20.804;2023-05-10T04:03:41;14.50;;;7.43;;
75289;SDS011;63883;48.996;20.804;2023-05-10T04:06:06;15.70;;;7.25;;
75289;SDS011;63883;48.996;20.804;2023-05-10T04:08:34;15.93;;;7.28;;
75289;SDS011;63883;48.996;20.804;2023-05-10T04:11:17;14.93;;;7.38;;
75289;SDS011;63883;48.996;20.804;2023-05-10T04:13:43;13.93;;;6.95;;
75289;SDS011;63883;48.996;20.804;2023-05-10T04:16:09;17.33;;;7.60;;
75289;SDS011;63883;48.996;20.804;2023-05-10T04:18:35;17.25;;;7.55;;
75289;SDS011;63883;48.996;20.804;2023-05-10T04:21:00;16.90;;;7.25;;
75289;SDS011;63883;48.996;20.804;2023-05-10T04:23:27;16.08;;;8.50;;
75289;SDS011;63883;48.996;20.804;2023-05-10T04:25:52;17.63;;;8.13;;
75289;SDS011;63883;48.996;20.804;2023-05-10T04:28:25;15.30;;;7.60;;
75289;SDS011;63883;48.996;20.804;2023-05-10T04:30:50;14.13;;;7.40;;
75289;SDS011;63883;48.996;20.804;2023-05-10T04:33:17;15.25;;;8.15;;
75289;SDS011;63883;48.996;20.804;2023-05-10T04:35:42;16.20;;;7.55;;
75289;SDS011;63883;48.996;20.804;2023-05-10T04:38:08;13.05;;;6.40;;
75289;SDS011;63883;48.996;20.804;2023-05-10T04:40:33;12.88;;;6.43;;
75289;SDS011;63883;48.996;20.804;2023-05-10T04:42:59;13.70;;;6.25;;
75289;SDS011;63883;48.996;20.804;2023-05-10T04:45:25;12.27;;;6.22;;
75289;SDS011;63883;48.996;20.804;2023-05-10T04:47:51;14.40;;;7.13;;
75289;SDS011;63883;48.996;20.804;2023-05-10T04:50:16;13.88;;;6.68;;
75289;SDS011;63883;48.996;20.804;2023-05-10T04:52:42;10.10;;;5.60;;
75289;SDS011;63883;48.996;20.804;2023-05-10T04:55:08;12.70;;;6.47;;
75289;SDS011;63883;48.996;20.804;2023-05-10T04:57:35;13.02;;;6.32;;
75289;SDS011;63883;48.996;20.804;2023-05-10T05:00:00;13.05;;;6.05;;
75289;SDS011;63883;48.996;20.804;2023-05-10T05:02:27;11.68;;;5.93;;
75289;SDS011;63883;48.996;20.804;2023-05-10T05:04:52;16.60;;;6.35;;
75289;SDS011;63883;48.996;20.804;2023-05-10T05:07:18;12.80;;;6.55;;
75289;SDS011;63883;48.996;20.804;2023-05-10T05:09:44;11.45;;;6.35;;
75289;SDS011;63883;48.996;20.804;2023-05-10T05:12:09;11.20;;;6.10;;
75289;SDS011;63883;48.996;20.804;2023-05-10T05:14:39;11.23;;;6.45;;
75289;SDS011;63883;48.996;20.804;2023-05-10T05:17:05;9.73;;;6.05;;
75289;SDS011;63883;48.996;20.804;2023-05-10T05:19:31;11.73;;;6.05;;
75289;SDS011;63883;48.996;20.804;2023-05-10T05:21:57;12.20;;;6.07;;
75289;SDS011;63883;48.996;20.804;2023-05-10T05:24:22;9.32;;;5.57;;
75289;SDS011;63883;48.996;20.804;2023-05-10T05:26:48;10.48;;;5.68;;
75289;SDS011;63883;48.996;20.804;2023-05-10T05:29:14;8.82;;;4.78;;
75289;SDS011;63883;48.996;20.804;2023-05-10T05:31:39;8.90;;;4.85;;
75289;SDS011;63883;48.996;20.804;2023-05-10T05:34:05;10.05;;;5.70;;
75289;SDS011;63883;48.996;20.804;2023-05-10T05:36:31;8.48;;;5.15;;
75289;SDS011;63883;48.996;20.804;2023-05-10T05:38:57;7.63;;;4.57;;
75289;SDS011;63883;48.996;20.804;2023-05-10T05:41:23;6.10;;;4.55;;
75289;SDS011;63883;48.996;20.804;2023-05-10T05:43:49;7.47;;;4.32;;
75289;SDS011;63883;48.996;20.804;2023-05-10T05:46:15;6.47;;;4.40;;
75289;SDS011;63883;48.996;20.804;2023-05-10T05:48:41;7.03;;;4.63;;
75289;SDS011;63883;48.996;20.804;2023-05-10T05:51:07;8.18;;;4.55;;
75289;SDS011;63883;48.996;20.804;2023-05-10T05:53:32;9.23;;;4.50;;
75289;SDS011;63883;48.996;20.804;2023-05-10T05:55:58;7.53;;;4.45;;
75289;SDS011;63883;48.996;20.804;2023-05-10T05:58:24;8.68;;;4.40;;
75289;SDS011;63883;48.996;20.804;2023-05-10T06:00:51;5.47;;;3.90;;
75289;SDS011;63883;48.996;20.804;2023-05-10T06:03:17;7.28;;;4.50;;
75289;SDS011;63883;48.996;20.804;2023-05-10T06:05:43;6.57;;;4.30;;
75289;SDS011;63883;48.996;20.804;2023-05-10T06:08:09;8.07;;;4.38;;
75289;SDS011;63883;48.996;20.804;2023-05-10T06:10:35;6.22;;;4.05;;
75289;SDS011;63883;48.996;20.804;2023-05-10T06:13:01;7.55;;;4.25;;
75289;SDS011;63883;48.996;20.804;2023-05-10T06:15:27;6.53;;;3.97;;
75289;SDS011;63883;48.996;20.804;2023-05-10T06:17:53;6.78;;;4.38;;
75289;SDS011;63883;48.996;20.804;2023-05-10T06:20:18;7.63;;;3.85;;
75289;SDS011;63883;48.996;20.804;2023-05-10T06:22:44;5.93;;;4.00;;
75289;SDS011;63883;48.996;20.804;2023-05-10T06:25:10;6.57;;;3.90;;
75289;SDS011;63883;48.996;20.804;2023-05-10T06:27:36;4.18;;;3.40;;
75289;SDS011;63883;48.996;20.804;2023-05-10T06:30:02;5.32;;;3.28;;
75289;SDS011;63883;48.996;20.804;2023-05-10T06:32:28;5.10;;;3.33;;
75289;SDS011;63883;48.996;20.804;2023-05-10T06:34:54;4.50;;;3.60;;
75289;SDS011;63883;48.996;20.804;2023-05-10T06:37:19;5.70;;;3.70;;
75289;SDS011;63883;48.996;20.804;2023-05-10T06:39:45;4.78;;;3.50;;
75289;SDS011;63883;48.996;20.804;2023-05-10T06:42:11;5.80;;;3.58;;
75289;SDS011;63883;48.996;20.804;2023-05-10T06:44:36;7.55;;;3.70;;
75289;SDS011;63883;48.996;20.804;2023-05-10T06:47:02;4.50;;;3.30;;
75289;SDS011;63883;48.996;20.804;2023-05-10T06:49:28;5.32;;;3.60;;
75289;SDS011;63883;48.996;20.804;2023-05-10T06:51:55;6.10;;;3.70;;
75289;SDS011;63883;48.996;20.804;2023-05-10T06:54:21;5.25;;;3.70;;
75289;SDS011;63883;48.996;20.804;2023-05-10T06:56:47;5.40;;;3.95;;
75289;SDS011;63883;48.996;20.804;2023-05-10T06:59:12;5.10;;;3.63;;
75289;SDS011;63883;48.996;20.804;2023-05-10T07:01:39;5.35;;;3.88;;
75289;SDS011;63883;48.996;20.804;2023-05-10T07:04:05;5.93;;;3.70;;
75289;SDS011;63883;48.996;20.804;2023-05-10T07:06:32;6.40;;;3.60;;
75289;SDS011;63883;48.996;20.804;2023-05-10T07:08:58;5.53;;;3.10;;
75289;SDS011;63883;48.996;20.804;2023-05-10T07:11:24;5.40;;;3.47;;
75289;SDS011;63883;48.996;20.804;2023-05-10T07:13:50;5.88;;;3.50;;
75289;SDS011;63883;48.996;20.804;2023-05-10T07:16:16;4.00;;;3.30;;
75289;SDS011;63883;48.996;20.804;2023-05-10T07:18:41;4.95;;;3.28;;
75289;SDS011;63883;48.996;20.804;2023-05-10T07:21:07;3.78;;;3.00;;
75289;SDS011;63883;48.996;20.804;2023-05-10T07:23:34;5.15;;;3.33;;
75289;SDS011;63883;48.996;20.804;2023-05-10T07:25:59;3.78;;;3.03;;
75289;SDS011;63883;48.996;20.804;2023-05-10T07:28:25;4.05;;;3.33;;
75289;SDS011;63883;48.996;20.804;2023-05-10T07:30:51;3.63;;;2.92;;
75289;SDS011;63883;48.996;20.804;2023-05-10T07:33:16;3.97;;;3.08;;
75289;SDS011;63883;48.996;20.804;2023-05-10T07:35:42;3.78;;;2.95;;
75289;SDS011;63883;48.996;20.804;2023-05-10T07:38:08;3.40;;;2.88;;
75289;SDS011;63883;48.996;20.804;2023-05-10T07:40:36;3.50;;;3.00;;
75289;SDS011;63883;48.996;20.804;2023-05-10T07:43:02;3.78;;;3.05;;
75289;SDS011;63883;48.996;20.804;2023-05-10T07:45:27;4.05;;;3.10;;
75289;SDS011;63883;48.996;20.804;2023-05-10T07:47:53;4.00;;;3.28;;
75289;SDS011;63883;48.996;20.804;2023-05-10T07:50:19;4.78;;;3.15;;
75289;SDS011;63883;48.996;20.804;2023-05-10T07:52:46;3.00;;;2.53;;
75289;SDS011;63883;48.996;20.804;2023-05-10T07:55:13;3.50;;;2.70;;
75289;SDS011;63883;48.996;20.804;2023-05-10T07:57:39;3.25;;;2.95;;
75289;SDS011;63883;48.996;20.804;2023-05-10T08:00:05;2.80;;;2.47;;
75289;SDS011;63883;48.996;20.804;2023-05-10T08:02:32;2.85;;;2.47;;
75289;SDS011;63883;48.996;20.804;2023-05-10T08:04:58;4.95;;;2.88;;
75289;SDS011;63883;48.996;20.804;2023-05-10T08:07:24;4.40;;;3.00;;
75289;SDS011;63883;48.996;20.804;2023-05-10T08:09:50;2.88;;;2.58;;
75289;SDS011;63883;48.996;20.804;2023-05-10T08:12:16;4.63;;;2.95;;
75289;SDS011;63883;48.996;20.804;2023-05-10T08:14:42;2.78;;;2.50;;
75289;SDS011;63883;48.996;20.804;2023-05-10T08:17:08;2.95;;;2.40;;
75289;SDS011;63883;48.996;20.804;2023-05-10T08:19:33;3.10;;;2.60;;
75289;SDS011;63883;48.996;20.804;2023-05-10T08:22:00;3.15;;;2.40;;
75289;SDS011;63883;48.996;20.804;2023-05-10T08:24:25;2.78;;;2.20;;
75289;SDS011;63883;48.996;20.804;2023-05-10T08:26:51;2.80;;;2.17;;
75289;SDS011;63883;48.996;20.804;2023-05-10T08:29:17;3.70;;;2.20;;
75289;SDS011;63883;48.996;20.804;2023-05-10T08:31:43;2.72;;;2.30;;
75289;SDS011;63883;48.996;20.804;2023-05-10T08:34:08;3.30;;;2.28;;
75289;SDS011;63883;48.996;20.804;2023-05-10T08:36:34;3.20;;;2.50;;
75289;SDS011;63883;48.996;20.804;2023-05-10T08:39:00;2.55;;;2.35;;
75289;SDS011;63883;48.996;20.804;2023-05-10T08:41:25;2.50;;;2.30;;
75289;SDS011;63883;48.996;20.804;2023-05-10T08:43:51;2.60;;;2.40;;
75289;SDS011;63883;48.996;20.804;2023-05-10T08:46:19;3.60;;;2.20;;
75289;SDS011;63883;48.996;20.804;2023-05-10T08:48:46;2.92;;;2.40;;
75289;SDS011;63883;48.996;20.804;2023-05-10T08:51:17;2.70;;;2.50;;
75289;SDS011;63883;48.996;20.804;2023-05-10T08:53:44;3.53;;;2.20;;
75289;SDS011;63883;48.996;20.804;2023-05-10T08:56:11;2.35;;;2.15;;
75289;SDS011;63883;48.996;20.804;2023-05-10T08:58:37;2.38;;;2.17;;
75289;SDS011;63883;48.996;20.804;2023-05-10T09:01:04;2.40;;;2.20;;
75289;SDS011;63883;48.996;20.804;2023-05-10T09:03:30;3.72;;;2.17;;
75289;SDS011;63883;48.996;20.804;2023-05-10T09:05:57;2.45;;;2.17;;
75289;SDS011;63883;48.996;20.804;2023-05-10T09:08:23;2.45;;;2.13;;
75289;SDS011;63883;48.996;20.804;2023-05-10T09:10:56;2.72;;;2.30;;
75289;SDS011;63883;48.996;20.804;2023-05-10T09:13:23;2.53;;;2.33;;
75289;SDS011;63883;48.996;20.804;2023-05-10T09:15:49;3.05;;;2.60;;
75289;SDS011;63883;48.996;20.804;2023-05-10T09:18:16;3.10;;;2.50;;
75289;SDS011;63883;48.996;20.804;2023-05-10T09:20:42;4.18;;;2.47;;
75289;SDS011;63883;48.996;20.804;2023-05-10T09:23:08;3.72;;;3.17;;
75289;SDS011;63883;48.996;20.804;2023-05-10T09:25:34;5.75;;;2.90;;
75289;SDS011;63883;48.996;20.804;2023-05-10T09:27:59;2.63;;;2.42;;
75289;SDS011;63883;48.996;20.804;2023-05-10T09:32:52;3.67;;;2.60;;
75289;SDS011;63883;48.996;20.804;2023-05-10T09:35:20;3.58;;;2.35;;
75289;SDS011;63883;48.996;20.804;2023-05-10T09:37:49;2.72;;;2.30;;
75289;SDS011;63883;48.996;20.804;2023-05-10T09:40:18;2.40;;;2.20;;
75289;SDS011;63883;48.996;20.804;2023-05-10T09:45:23;2.58;;;2.10;;
75289;SDS011;63883;48.996;20.804;2023-05-10T09:47:49;2.50;;;2.30;;
75289;SDS011;63883;48.996;20.804;2023-05-10T09:50:16;2.60;;;2.40;;
75289;SDS011;63883;48.996;20.804;2023-05-10T09:55:24;2.55;;;2.30;;
75289;SDS011;63883;48.996;20.804;2023-05-10T09:58:11;2.92;;;2.40;;
75289;SDS011;63883;48.996;20.804;2023-05-10T10:00:44;2.95;;;2.20;;
75289;SDS011;63883;48.996;20.804;2023-05-10T10:03:16;2.50;;;2.20;;
75289;SDS011;63883;48.996;20.804;2023-05-10T10:05:43;3.15;;;2.28;;
75289;SDS011;63883;48.996;20.804;2023-05-10T10:08:09;2.55;;;2.10;;
75289;SDS011;63883;48.996;20.804;2023-05-10T10:10:36;2.30;;;2.10;;
75289;SDS011;63883;48.996;20.804;2023-05-10T10:13:02;2.40;;;2.20;;
75289;SDS011;63883;48.996;20.804;2023-05-10T10:15:28;2.42;;;2.20;;
75289;SDS011;63883;48.996;20.804;2023-05-10T10:17:53;2.28;;;2.08;;
75289;SDS011;63883;48.996;20.804;2023-05-10T10:20:20;3.17;;;2.20;;
75289;SDS011;63883;48.996;20.804;2023-05-10T10:22:47;2.95;;;2.10;;
75289;SDS011;63883;48.996;20.804;2023-05-10T10:25:15;2.40;;;2.03;;
75289;SDS011;63883;48.996;20.804;2023-05-10T10:35:31;4.53;;;2.25;;
75289;SDS011;63883;48.996;20.804;2023-05-10T10:37:58;2.97;;;2.20;;
75289;SDS011;63883;48.996;20.804;2023-05-10T10:40:27;3.65;;;1.95;;
75289;SDS011;63883;48.996;20.804;2023-05-10T10:42:55;2.25;;;1.90;;
75289;SDS011;63883;48.996;20.804;2023-05-10T10:45:23;2.28;;;2.08;;
75289;SDS011;63883;48.996;20.804;2023-05-10T10:50:47;3.13;;;2.00;;
75289;SDS011;63883;48.996;20.804;2023-05-10T10:53:21;1.90;;;1.80;;
75289;SDS011;63883;48.996;20.804;2023-05-10T10:55:47;2.78;;;2.20;;
75289;SDS011;63883;48.996;20.804;2023-05-10T10:58:31;2.25;;;2.05;;
75289;SDS011;63883;48.996;20.804;2023-05-10T11:01:08;4.47;;;2.30;;
75289;SDS011;63883;48.996;20.804;2023-05-10T11:03:35;2.30;;;2.10;;
75289;SDS011;63883;48.996;20.804;2023-05-10T11:06:01;2.95;;;2.10;;
75289;SDS011;63883;48.996;20.804;2023-05-10T11:08:28;3.00;;;2.60;;
75289;SDS011;63883;48.996;20.804;2023-05-10T11:13:30;2.60;;;2.40;;
75289;SDS011;63883;48.996;20.804;2023-05-10T11:18:53;3.38;;;2.40;;
75289;SDS011;63883;48.996;20.804;2023-05-10T11:21:22;2.75;;;2.40;;
75289;SDS011;63883;48.996;20.804;2023-05-10T11:23:51;3.15;;;2.50;;
75289;SDS011;63883;48.996;20.804;2023-05-10T11:26:25;2.83;;;2.50;;
75289;SDS011;63883;48.996;20.804;2023-05-10T11:28:55;2.50;;;2.03;;
75289;SDS011;63883;48.996;20.804;2023-05-10T11:31:21;2.83;;;2.20;;
75289;SDS011;63883;48.996;20.804;2023-05-10T11:33:52;5.93;;;2.58;;
75289;SDS011;63883;48.996;20.804;2023-05-10T11:36:23;2.85;;;2.53;;
75289;SDS011;63883;48.996;20.804;2023-05-10T11:38:51;6.30;;;2.78;;
75289;SDS011;63883;48.996;20.804;2023-05-10T11:41:18;2.78;;;2.30;;
75289;SDS011;63883;48.996;20.804;2023-05-10T11:43:47;2.60;;;2.40;;
75289;SDS011;63883;48.996;20.804;2023-05-10T11:46:14;2.63;;;2.22;;
75289;SDS011;63883;48.996;20.804;2023-05-10T11:48:41;2.90;;;2.28;;
75289;SDS011;63883;48.996;20.804;2023-05-10T11:51:08;3.40;;;2.63;;
75289;SDS011;63883;48.996;20.804;2023-05-10T11:53:35;3.50;;;2.33;;
75289;SDS011;63883;48.996;20.804;2023-05-10T11:56:02;4.22;;;2.70;;
75289;SDS011;63883;48.996;20.804;2023-05-10T11:58:30;2.75;;;2.53;;
75289;SDS011;63883;48.996;20.804;2023-05-10T12:00:57;3.95;;;2.50;;
75289;SDS011;63883;48.996;20.804;2023-05-10T12:03:24;2.42;;;2.22;;
75289;SDS011;63883;48.996;20.804;2023-05-10T12:05:50;2.50;;;2.30;;
75289;SDS011;63883;48.996;20.804;2023-05-10T12:08:19;3.13;;;2.15;;
75289;SDS011;63883;48.996;20.804;2023-05-10T12:10:46;3.30;;;2.50;;
75289;SDS011;63883;48.996;20.804;2023-05-10T12:13:12;3.40;;;2.30;;
75289;SDS011;63883;48.996;20.804;2023-05-10T12:15:39;2.60;;;2.40;;
75289;SDS011;63883;48.996;20.804;2023-05-10T12:18:05;4.78;;;2.55;;
75289;SDS011;63883;48.996;20.804;2023-05-10T12:20:31;2.40;;;2.17;;
75289;SDS011;63883;48.996;20.804;2023-05-10T12:22:57;2.90;;;2.25;;
75289;SDS011;63883;48.996;20.804;2023-05-10T12:25:24;3.97;;;2.30;;
75289;SDS011;63883;48.996;20.804;2023-05-10T12:27:56;2.63;;;2.42;;
75289;SDS011;63883;48.996;20.804;2023-05-10T12:30:24;2.92;;;2.38;;
75289;SDS011;63883;48.996;20.804;2023-05-10T12:32:51;4.90;;;2.80;;
75289;SDS011;63883;48.996;20.804;2023-05-10T12:35:18;3.38;;;2.85;;
75289;SDS011;63883;48.996;20.804;2023-05-10T12:37:49;3.53;;;2.55;;
75289;SDS011;63883;48.996;20.804;2023-05-10T12:40:16;5.47;;;3.60;;
75289;SDS011;63883;48.996;20.804;2023-05-10T12:42:42;4.47;;;2.90;;
75289;SDS011;63883;48.996;20.804;2023-05-10T12:45:10;4.25;;;3.00;;
75289;SDS011;63883;48.996;20.804;2023-05-10T12:47:36;4.53;;;2.95;;
75289;SDS011;63883;48.996;20.804;2023-05-10T12:50:02;3.88;;;2.88;;
75289;SDS011;63883;48.996;20.804;2023-05-10T12:52:28;3.00;;;2.45;;
75289;SDS011;63883;48.996;20.804;2023-05-10T12:54:55;9.32;;;4.43;;
75289;SDS011;63883;48.996;20.804;2023-05-10T12:57:20;8.82;;;4.28;;
75289;SDS011;63883;48.996;20.804;2023-05-10T12:59:47;3.20;;;2.63;;
75289;SDS011;63883;48.996;20.804;2023-05-10T13:02:12;5.85;;;3.28;;
75289;SDS011;63883;48.996;20.804;2023-05-10T13:04:40;5.88;;;3.50;;
75289;SDS011;63883;48.996;20.804;2023-05-10T13:07:07;6.25;;;3.30;;
75289;SDS011;63883;48.996;20.804;2023-05-10T13:09:32;3.72;;;2.88;;
75289;SDS011;63883;48.996;20.804;2023-05-10T13:11:58;4.43;;;3.00;;
75289;SDS011;63883;48.996;20.804;2023-05-10T13:14:24;5.82;;;3.42;;
75289;SDS011;63883;48.996;20.804;2023-05-10T13:16:50;13.38;;;6.65;;
75289;SDS011;63883;48.996;20.804;2023-05-10T13:19:16;3.58;;;2.80;;
75289;SDS011;63883;48.996;20.804;2023-05-10T13:21:43;4.03;;;2.97;;
75289;SDS011;63883;48.996;20.804;2023-05-10T13:24:11;5.18;;;2.53;;
75289;SDS011;63883;48.996;20.804;2023-05-10T13:26:40;2.63;;;2.40;;
75289;SDS011;63883;48.996;20.804;2023-05-10T13:29:06;10.30;;;4.60;;
75289;SDS011;63883;48.996;20.804;2023-05-10T13:31:33;3.50;;;2.67;;
75289;SDS011;63883;48.996;20.804;2023-05-10T13:33:59;3.05;;;2.33;;
75289;SDS011;63883;48.996;20.804;2023-05-10T13:36:24;2.63;;;2.42;;
75289;SDS011;63883;48.996;20.804;2023-05-10T13:38:50;4.03;;;2.45;;
75289;SDS011;63883;48.996;20.804;2023-05-10T13:41:16;3.00;;;2.70;;
75289;SDS011;63883;48.996;20.804;2023-05-10T13:43:41;2.58;;;2.30;;
75289;SDS011;63883;48.996;20.804;2023-05-10T13:46:07;2.92;;;2.50;;
75289;SDS011;63883;48.996;20.804;2023-05-10T13:48:33;3.10;;;2.60;;
75289;SDS011;63883;48.996;20.804;2023-05-10T13:50:58;3.45;;;2.40;;
75289;SDS011;63883;48.996;20.804;2023-05-10T13:53:24;5.55;;;3.30;;
75289;SDS011;63883;48.996;20.804;2023-05-10T13:55:50;4.50;;;3.00;;
75289;SDS011;63883;48.996;20.804;2023-05-10T13:58:15;4.25;;;3.08;;
75289;SDS011;63883;48.996;20.804;2023-05-10T14:00:41;3.85;;;2.50;;
75289;SDS011;63883;48.996;20.804;2023-05-10T14:03:07;3.08;;;2.47;;
75289;SDS011;63883;48.996;20.804;2023-05-10T14:05:34;2.83;;;2.20;;
75289;SDS011;63883;48.996;20.804;2023-05-10T14:07:59;2.42;;;2.22;;
75289;SDS011;63883;48.996;20.804;2023-05-10T14:10:25;3.72;;;2.35;;
75289;SDS011;63883;48.996;20.804;2023-05-10T14:12:51;2.75;;;2.40;;
75289;SDS011;63883;48.996;20.804;2023-05-10T14:15:17;2.88;;;2.35;;
75289;SDS011;63883;48.996;20.804;2023-05-10T14:17:43;3.70;;;2.30;;
75289;SDS011;63883;48.996;20.804;2023-05-10T14:20:09;2.40;;;2.20;;
75289;SDS011;63883;48.996;20.804;2023-05-10T14:22:35;2.88;;;2.20;;
75289;SDS011;63883;48.996;20.804;2023-05-10T14:25:01;3.55;;;2.30;;
75289;SDS011;63883;48.996;20.804;2023-05-10T14:27:27;9.70;;;2.72;;
75289;SDS011;63883;48.996;20.804;2023-05-10T14:29:52;3.40;;;2.45;;
75289;SDS011;63883;48.996;20.804;2023-05-10T14:32:19;4.20;;;2.28;;
75289;SDS011;63883;48.996;20.804;2023-05-10T14:34:45;3.40;;;2.50;;
75289;SDS011;63883;48.996;20.804;2023-05-10T14:37:11;3.47;;;2.40;;
75289;SDS011;63883;48.996;20.804;2023-05-10T14:39:37;4.82;;;2.40;;
75289;SDS011;63883;48.996;20.804;2023-05-10T14:42:03;3.30;;;2.53;;
75289;SDS011;63883;48.996;20.804;2023-05-10T14:44:29;2.53;;;2.33;;
75289;SDS011;63883;48.996;20.804;2023-05-10T14:46:55;3.38;;;2.35;;
75289;SDS011;63883;48.996;20.804;2023-05-10T14:49:21;2.70;;;2.35;;
75289;SDS011;63883;48.996;20.804;2023-05-10T14:51:48;3.13;;;2.40;;
75289;SDS011;63883;48.996;20.804;2023-05-10T14:54:14;2.83;;;2.40;;
75289;SDS011;63883;48.996;20.804;2023-05-10T14:56:39;2.72;;;2.42;;
75289;SDS011;63883;48.996;20.804;2023-05-10T14:59:07;3.28;;;2.30;;
75289;SDS011;63883;48.996;20.804;2023-05-10T15:01:33;4.38;;;2.70;;
75289;SDS011;63883;48.996;20.804;2023-05-10T15:04:03;2.25;;;2.10;;
75289;SDS011;63883;48.996;20.804;2023-05-10T15:06:32;2.55;;;2.35;;
75289;SDS011;63883;48.996;20.804;2023-05-10T15:11:25;2.58;;;2.30;;
75289;SDS011;63883;48.996;20.804;2023-05-10T15:13:51;3.88;;;2.80;;
75289;SDS011;63883;48.996;20.804;2023-05-10T15:16:17;4.20;;;2.53;;
75289;SDS011;63883;48.996;20.804;2023-05-10T15:18:43;2.90;;;2.60;;
75289;SDS011;63883;48.996;20.804;2023-05-10T15:21:09;4.03;;;2.50;;
75289;SDS011;63883;48.996;20.804;2023-05-10T15:23:35;5.55;;;2.83;;
75289;SDS011;63883;48.996;20.804;2023-05-10T15:26:01;4.25;;;2.50;;